Portada
METAR-TAF:

METAR-TAF

Aeroports :

Puerto Maldonado, Perú

latitud: 12-38S, longitud: 069-12W, altitud: 265 m

Observació

L'informe es va fer fa 45 minuts, a les 11:00 UTC
Vent 2 kt del Nord/Nord-Oest
Temperatura 24°C
Humitat 89%
Pressió 1008 hPa
Visibilitat 10 km o més
sense núvols per sota de 1500 mi sense presència de cumulonimbus.

METAR: SPTU 241100Z 34002KT CAVOK 24/22 Q1008 RMK TX35.9 BIRD HAZARD RWY 01/19 PP000

Hora: 06:45 (11:45 UTC)

Pronòstic

L'informe es va fer fa 18 hores i 35 minuts, a les 17:10 UTC
Pronòstic vàlid del 23 a les 18 UTC al 24 a les 18 UTC
Vent 5 kt del Oest/Nord-Oest
Visibilitat 10 km o més
sense núvols per sota de 1500 mi sense presència de cumulonimbus.

TAF: SPTU 231710Z 2318/2418 29005KT CAVOK TX34/2320Z TN22/2411Z

Observacions i pronòstics meteorològics de més de 4000 aeroports (METAR i TAF).

Les estacions disponibles són els punts grocs i vermells al mapa.

Posi el ratolí al punt desitjat per veure el nom de l'estació.

Feu clic per veure les observacions i els pronòstics meteorològics.

Per canviar el mapa: feu clic els botons verds amb una creu de color negre per apropar; al botó verd amb un guió per allunyar la imatge; o en les fletxes verdes per a mapes adjacents.


METAR-TAF: